Avon, Massachusetts
Current Conditions -  °F | °C
As of 1:53 PM on Saturday 20 Dec 2014 (Local Time) from KOWD Reporting Station
Overcast Overcast  
Wind Chill: 29°   Ceiling: 2500
Heat Index: 34°   Visibility: 10mi
Dew Point: 24°   Wind: 6mph
Humidity: 67%   Direction: 350°N
Pressure: 30.26"   Gusts: NA
Location:  42.13°N, 71.04°W
Report Text: KOWD 201853Z 35005KT 10SM BKN025 OVC038 01/M04 A3026 RMK AO2 SLP246 T00111044
Loading
Personal Weather Stations






























Interactive Weather Map New forecast layout! Learn more

10-Day Weather Forecast

Advertisements
Track Severe Weather on mobile